Terminal Aerodrome Forecast
Issued by NWS Columbia, SC

Home | Current Version | Previous Version | Text Only | Print | Product List | Glossary On
Versions: 1 2 3 4 5 6 7 8 9 10 11 12 13 14 15 16 17 18 19 20 21 22 23 24 25 26
523
FTUS42 KCAE 111140
TAFCAE
TAF
KCAE 111140Z 1112/1212 VRB03KT P6SM BKN040
     FM111300 07005KT P6SM BKN035
     FM111800 07006KT P6SM SCT020 OVC030
     FM112200 VRB04KT P6SM VCSH SCT010 BKN025 WS020/16030KT
     FM120600 VRB04KT 4SM BR VCSH SCT007 OVC015=

USA.gov is the U.S. government's official web portal to all federal, state and local government web resources and services.